Chlef, Algeria
Current Conditions -  °F | °C
As of 7:00 PM on Saturday 25 Oct 2014 (Local Time) from DAOI Reporting Station
Clear Clear  
Wind Chill: 81°   Ceiling: Unl
Heat Index: 81°   Visibility: 6mi
Dew Point: 41°   Wind: 12mph
Humidity: 24%   Direction: 60°ENE
Pressure: 30.03"   Gusts: NA
Location:  36.2°N, 1.26°E
Report Text: DAOI 251800Z 06010KT CAVOK 27/05 Q1017
Loading
Personal Weather Stations






























Interactive Weather Map
Tropical Storm Tracking
New forecast layout! Learn more

10-Day Weather Forecast

Advertisements
Track Severe Weather on mobile